createdAt,value
2019-03-04T00:02:12.659Z,11.80
2019-03-04T00:04:40.218Z,12.10
2019-03-04T00:07:07.739Z,12.10
2019-03-04T00:09:36.399Z,12.00
2019-03-04T00:12:04.196Z,11.90
2019-03-04T00:14:32.099Z,12.20
2019-03-04T00:17:00.003Z,12.40
2019-03-04T00:19:28.100Z,12.10
2019-03-04T00:21:56.011Z,12.10
2019-03-04T00:24:24.339Z,12.10
2019-03-04T00:26:52.126Z,12.20
2019-03-04T00:29:20.173Z,12.00
2019-03-04T00:31:48.851Z,12.10
2019-03-04T00:34:16.389Z,12.00
2019-03-04T00:36:43.907Z,12.10
2019-03-04T00:39:11.821Z,11.90
2019-03-04T00:41:39.626Z,11.80
2019-03-04T00:44:07.209Z,11.90
2019-03-04T00:46:34.693Z,12.30
2019-03-04T00:49:02.820Z,12.50
2019-03-04T00:51:31.127Z,12.50
2019-03-04T00:53:58.912Z,12.50
2019-03-04T00:56:26.538Z,12.50
2019-03-04T00:58:55.268Z,12.40
2019-03-04T01:01:23.120Z,12.70
2019-03-04T01:03:51.847Z,12.70
2019-03-04T01:06:19.948Z,12.80
2019-03-04T01:08:48.202Z,12.80
2019-03-04T01:11:15.686Z,12.80
2019-03-04T01:13:43.875Z,12.60
2019-03-04T01:16:11.688Z,12.60
2019-03-04T01:18:39.537Z,12.20
2019-03-04T01:21:07.302Z,12.50
2019-03-04T01:23:34.730Z,12.20
2019-03-04T01:26:02.656Z,12.20
2019-03-04T01:28:31.942Z,12.30
2019-03-04T01:30:59.543Z,12.20
2019-03-04T01:33:26.986Z,12.30
2019-03-04T01:35:54.771Z,12.10
2019-03-04T01:38:22.203Z,12.10
2019-03-04T01:40:52.414Z,12.00
2019-03-04T01:43:20.970Z,12.20
2019-03-04T01:45:49.056Z,12.20
2019-03-04T01:48:16.618Z,12.10
2019-03-04T01:50:46.125Z,12.00
2019-03-04T01:53:13.626Z,12.10
2019-03-04T01:55:41.414Z,12.10
2019-03-04T01:58:09.289Z,12.00
2019-03-04T02:00:37.170Z,12.10
2019-03-04T02:03:04.982Z,12.10
2019-03-04T02:05:32.729Z,11.50
2019-03-04T02:08:00.345Z,12.10
2019-03-04T02:10:28.459Z,12.00
2019-03-04T02:12:56.298Z,11.90
2019-03-04T02:15:23.810Z,12.10
2019-03-04T02:17:51.358Z,11.80
2019-03-04T02:20:19.169Z,12.00
2019-03-04T02:22:47.891Z,11.80
2019-03-04T02:25:16.574Z,12.00
2019-03-04T02:27:49.542Z,12.00
2019-03-04T02:30:23.092Z,11.70
2019-03-04T02:32:50.944Z,12.00
2019-03-04T02:35:18.421Z,11.90
2019-03-04T02:37:46.258Z,12.20
2019-03-04T02:40:14.143Z,11.90
2019-03-04T02:42:42.237Z,11.90
2019-03-04T02:45:11.575Z,12.10
2019-03-04T02:47:39.296Z,12.00
2019-03-04T02:50:07.456Z,12.00
2019-03-04T02:52:35.970Z,11.80
2019-03-04T02:55:04.074Z,11.50
2019-03-04T02:57:32.224Z,11.60
2019-03-04T03:00:00.446Z,11.50
2019-03-04T03:02:28.405Z,11.80
2019-03-04T03:04:56.252Z,11.40
2019-03-04T03:07:23.786Z,11.50
2019-03-04T03:09:51.905Z,11.60
2019-03-04T03:12:19.501Z,11.70
2019-03-04T03:14:47.152Z,11.50
2019-03-04T03:17:15.414Z,11.30
2019-03-04T03:19:43.653Z,11.50
2019-03-04T03:22:11.298Z,11.50
2019-03-04T03:24:39.996Z,11.60
2019-03-04T03:27:08.710Z,12.00
2019-03-04T03:29:36.279Z,12.00
2019-03-04T03:32:03.916Z,12.10
2019-03-04T03:34:31.759Z,12.10
2019-03-04T03:36:59.716Z,11.90
2019-03-04T03:39:27.559Z,11.70
2019-03-04T03:41:55.476Z,11.80
2019-03-04T03:44:23.375Z,11.70
2019-03-04T03:46:51.336Z,11.90
2019-03-04T03:49:19.219Z,11.80
2019-03-04T03:51:46.820Z,11.90
2019-03-04T03:54:14.855Z,11.80
2019-03-04T03:56:42.388Z,11.90
2019-03-04T03:59:10.318Z,12.10
2019-03-04T04:01:38.183Z,11.80
2019-03-04T04:04:06.142Z,11.90
2019-03-04T04:06:34.025Z,11.90
2019-03-04T04:09:01.619Z,11.80
2019-03-04T04:11:31.090Z,11.70
2019-03-04T04:13:58.635Z,11.70
2019-03-04T04:16:26.062Z,11.40
2019-03-04T04:18:54.508Z,11.30
2019-03-04T04:21:22.720Z,11.30
2019-03-04T04:23:50.306Z,11.20
2019-03-04T04:26:20.947Z,11.40
2019-03-04T04:28:51.873Z,11.40
2019-03-04T04:31:19.520Z,11.00
2019-03-04T04:33:47.769Z,11.40
2019-03-04T04:36:15.351Z,11.30
2019-03-04T04:38:44.359Z,11.30
2019-03-04T04:41:11.838Z,11.10
2019-03-04T04:43:39.428Z,11.20
2019-03-04T04:46:06.915Z,11.40
2019-03-04T04:48:34.798Z,11.20
2019-03-04T04:51:02.522Z,11.00
2019-03-04T04:53:30.283Z,11.40
2019-03-04T04:55:58.392Z,11.40
2019-03-04T04:58:25.886Z,11.40
2019-03-04T05:00:53.790Z,11.70
2019-03-04T05:03:22.504Z,11.70
2019-03-04T05:05:50.907Z,11.60
2019-03-04T05:08:18.456Z,11.60
2019-03-04T05:10:47.586Z,11.60
2019-03-04T05:13:15.429Z,11.50
2019-03-04T05:15:43.318Z,11.80
2019-03-04T05:18:11.430Z,11.50
2019-03-04T05:20:39.515Z,11.60
2019-03-04T05:23:07.101Z,11.80
2019-03-04T05:25:34.547Z,11.90
2019-03-04T05:28:02.736Z,12.00
2019-03-04T05:30:30.380Z,11.90
2019-03-04T05:32:57.880Z,11.80
2019-03-04T05:35:26.102Z,12.00
2019-03-04T05:37:53.894Z,11.90
2019-03-04T05:40:21.751Z,12.10
2019-03-04T05:42:49.680Z,12.00
2019-03-04T05:45:17.347Z,11.80
2019-03-04T05:47:45.870Z,11.90
2019-03-04T05:50:14.504Z,11.90
2019-03-04T05:52:42.119Z,12.10
2019-03-04T05:55:10.959Z,11.90
2019-03-04T05:57:38.556Z,12.10
2019-03-04T06:00:10.081Z,12.00
2019-03-04T06:02:38.000Z,12.00
2019-03-04T06:05:05.865Z,12.00
2019-03-04T06:07:55.053Z,12.00
2019-03-04T06:10:22.738Z,11.80
2019-03-04T06:12:50.554Z,11.80
2019-03-04T06:15:19.193Z,12.10
2019-03-04T06:17:46.775Z,12.10
2019-03-04T06:20:14.801Z,12.10
2019-03-04T06:22:42.580Z,12.10
2019-03-04T06:25:12.947Z,12.10
2019-03-04T06:27:40.459Z,12.20
2019-03-04T06:30:11.258Z,11.80
2019-03-04T06:32:38.839Z,12.00
2019-03-04T06:35:07.143Z,11.90
2019-03-04T06:37:34.860Z,11.60
2019-03-04T06:40:02.711Z,11.30
2019-03-04T06:42:30.626Z,11.40
2019-03-04T06:45:00.516Z,11.40
2019-03-04T06:47:28.337Z,11.70
2019-03-04T06:49:56.152Z,11.40
2019-03-04T06:52:24.833Z,11.60
2019-03-04T06:55:29.923Z,11.70
2019-03-04T06:57:57.992Z,11.60
2019-03-04T07:00:51.235Z,11.50
2019-03-04T07:03:30.290Z,11.90
2019-03-04T07:05:57.926Z,12.20
2019-03-04T07:09:16.253Z,12.50
2019-03-04T07:11:45.114Z,12.80
2019-03-04T07:14:12.699Z,13.00
2019-03-04T07:16:40.286Z,13.20
2019-03-04T07:19:16.238Z,13.40
2019-03-04T07:21:44.523Z,13.40
2019-03-04T07:24:12.242Z,13.40
2019-03-04T07:26:40.336Z,13.70
2019-03-04T07:29:08.522Z,13.80
2019-03-04T07:31:36.766Z,13.80
2019-03-04T07:34:04.894Z,13.90
2019-03-04T07:36:33.037Z,13.70
2019-03-04T07:39:03.800Z,13.80
2019-03-04T07:41:39.122Z,13.60
2019-03-04T07:44:07.362Z,13.90
2019-03-04T07:46:35.150Z,14.00
2019-03-04T07:49:03.136Z,13.70
2019-03-04T07:51:31.109Z,14.00
2019-03-04T07:53:59.107Z,13.60
2019-03-04T07:56:26.655Z,13.50
2019-03-04T07:58:54.819Z,13.40
2019-03-04T08:01:27.653Z,13.80
2019-03-04T08:03:55.295Z,13.60
2019-03-04T08:06:22.801Z,13.80
2019-03-04T08:09:20.207Z,13.40
2019-03-04T08:12:28.978Z,13.40
2019-03-04T08:14:56.803Z,13.60
2019-03-04T08:17:24.409Z,13.40
2019-03-04T08:19:52.590Z,13.50
2019-03-04T08:22:20.910Z,13.40
2019-03-04T08:24:48.764Z,13.50
2019-03-04T08:27:17.019Z,13.20
2019-03-04T08:29:47.275Z,13.50
2019-03-04T08:32:15.687Z,13.50
2019-03-04T08:34:43.484Z,13.40
2019-03-04T08:37:11.359Z,13.50
2019-03-04T08:39:38.874Z,13.30
2019-03-04T08:42:06.397Z,13.30
2019-03-04T08:44:34.302Z,13.30
2019-03-04T08:47:02.696Z,13.40
2019-03-04T08:49:30.975Z,13.50
2019-03-04T08:51:59.200Z,13.40
2019-03-04T08:54:26.794Z,13.50
2019-03-04T08:57:03.613Z,13.40
2019-03-04T08:59:24.309Z,13.30
2019-03-04T09:01:51.895Z,13.50
2019-03-04T09:04:19.459Z,13.40
2019-03-04T09:06:47.214Z,13.70
2019-03-04T09:09:14.751Z,13.50
2019-03-04T09:11:42.699Z,13.50
2019-03-04T09:14:10.942Z,13.20
2019-03-04T09:16:38.466Z,13.10
2019-03-04T09:19:06.675Z,13.10
2019-03-04T09:21:34.448Z,13.10
2019-03-04T09:24:02.207Z,13.20
2019-03-04T09:26:29.752Z,13.30
2019-03-04T09:28:57.264Z,13.40
2019-03-04T09:31:24.994Z,13.40
2019-03-04T09:33:52.868Z,13.40
2019-03-04T09:36:20.326Z,13.40
2019-03-04T09:38:47.934Z,13.50
2019-03-04T09:41:15.387Z,13.20
2019-03-04T09:43:43.349Z,13.20
2019-03-04T09:46:11.314Z,13.40
2019-03-04T09:48:38.800Z,13.40
2019-03-04T09:51:06.400Z,13.20
2019-03-04T09:53:39.607Z,13.20
2019-03-04T09:56:03.716Z,13.40
2019-03-04T09:58:31.240Z,13.60
2019-03-04T10:01:09.825Z,13.50
2019-03-04T10:04:37.508Z,13.40
2019-03-04T10:07:43.873Z,13.60
2019-03-04T10:10:55.758Z,14.00
2019-03-04T10:14:02.259Z,14.60
2019-03-04T10:17:08.688Z,14.20
2019-03-04T10:20:17.045Z,13.30
2019-03-04T10:23:38.785Z,13.10
2019-03-04T10:26:41.701Z,12.80
2019-03-04T10:30:03.315Z,12.60
2019-03-04T10:32:59.038Z,12.80
2019-03-04T10:35:53.559Z,12.50
2019-03-04T10:38:42.980Z,12.40
2019-03-04T10:41:54.032Z,11.70
2019-03-04T10:44:45.893Z,11.30
2019-03-04T10:47:13.487Z,11.10
2019-03-04T10:49:41.131Z,11.00
2019-03-04T10:52:08.599Z,11.20
2019-03-04T10:54:36.075Z,11.60
2019-03-04T10:57:03.654Z,11.80
2019-03-04T10:59:31.654Z,11.40
2019-03-04T11:01:59.574Z,11.40
2019-03-04T11:04:27.554Z,11.70
2019-03-04T11:06:55.124Z,11.90
2019-03-04T11:09:23.016Z,12.50
2019-03-04T11:11:51.010Z,13.20
2019-03-04T11:14:18.553Z,13.60
2019-03-04T11:16:46.103Z,13.70
2019-03-04T11:19:14.766Z,13.70
2019-03-04T11:21:42.542Z,13.30
2019-03-04T11:24:10.686Z,13.50
2019-03-04T11:26:38.466Z,13.70
2019-03-04T11:29:06.255Z,14.10
2019-03-04T11:31:34.106Z,14.10
2019-03-04T11:34:01.879Z,13.70
2019-03-04T11:36:30.733Z,14.50
2019-03-04T11:39:13.562Z,15.20
2019-03-04T11:41:41.142Z,15.30
2019-03-04T11:44:08.752Z,15.10
2019-03-04T11:46:36.639Z,15.20
2019-03-04T11:49:04.699Z,15.10
2019-03-04T11:51:32.217Z,14.80
2019-03-04T11:54:00.712Z,15.10
2019-03-04T11:56:28.654Z,15.70
2019-03-04T11:58:56.762Z,15.80
2019-03-04T12:01:31.343Z,15.10
2019-03-04T12:03:59.307Z,13.90
2019-03-04T12:06:27.049Z,13.40
2019-03-04T12:08:54.893Z,13.70
2019-03-04T12:11:23.246Z,13.50
2019-03-04T12:13:50.725Z,13.20
2019-03-04T12:16:18.591Z,12.70
2019-03-04T12:18:46.385Z,13.10
2019-03-04T12:21:14.510Z,13.70
2019-03-04T12:23:42.304Z,14.10
2019-03-04T12:26:09.902Z,14.30
2019-03-04T12:28:37.982Z,13.90
2019-03-04T12:31:05.833Z,13.80
2019-03-04T12:33:33.812Z,13.80
2019-03-04T12:36:01.371Z,13.90
2019-03-04T12:38:28.899Z,14.40
2019-03-04T12:40:56.492Z,14.70
2019-03-04T12:43:24.304Z,14.30
2019-03-04T12:45:51.918Z,14.10
2019-03-04T12:48:19.734Z,13.70
2019-03-04T12:50:47.216Z,13.30
2019-03-04T12:53:14.782Z,13.20
2019-03-04T12:55:42.291Z,13.10
2019-03-04T12:58:10.166Z,12.90
2019-03-04T13:00:37.806Z,13.00
2019-03-04T13:03:06.172Z,13.00
2019-03-04T13:05:35.044Z,12.80
2019-03-04T13:08:02.864Z,12.70
2019-03-04T13:10:31.886Z,12.20
2019-03-04T13:12:59.569Z,12.00
2019-03-04T13:15:28.218Z,11.70
2019-03-04T13:17:56.043Z,11.30
2019-03-04T13:20:24.190Z,11.00
2019-03-04T13:22:51.814Z,11.20
2019-03-04T13:25:19.722Z,11.10
2019-03-04T13:27:47.717Z,11.30
2019-03-04T13:30:17.539Z,11.40
2019-03-04T13:32:45.207Z,11.40
2019-03-04T13:35:23.736Z,11.50
2019-03-04T13:37:43.735Z,11.50
2019-03-04T13:40:11.319Z,11.80
2019-03-04T13:42:38.976Z,12.60
2019-03-04T13:45:08.335Z,12.50
2019-03-04T13:47:35.965Z,12.70
2019-03-04T13:50:05.854Z,12.30
2019-03-04T13:52:34.848Z,12.40
2019-03-04T13:55:02.740Z,12.60
2019-03-04T13:57:32.358Z,12.30
2019-03-04T14:00:00.309Z,12.40
2019-03-04T14:02:28.330Z,12.20
2019-03-04T14:04:56.083Z,12.10
2019-03-04T14:07:24.002Z,11.80
2019-03-04T14:09:51.479Z,11.60
2019-03-04T14:12:19.721Z,11.50
2019-03-04T14:14:47.509Z,11.50
2019-03-04T14:17:15.360Z,11.30
2019-03-04T14:19:43.920Z,11.40
2019-03-04T14:22:11.770Z,11.60
2019-03-04T14:24:40.542Z,11.50
2019-03-04T14:27:08.594Z,11.60
2019-03-04T14:29:36.330Z,11.60
2019-03-04T14:32:03.872Z,11.50
2019-03-04T14:34:32.470Z,11.00
2019-03-04T14:37:00.675Z,11.20
2019-03-04T14:39:28.733Z,11.10
2019-03-04T14:41:56.338Z,10.80
2019-03-04T14:44:24.123Z,10.70
2019-03-04T14:46:51.893Z,10.40
2019-03-04T14:49:19.803Z,10.10
2019-03-04T14:51:47.676Z,10.40
2019-03-04T14:54:15.615Z,10.20
2019-03-04T14:56:43.483Z,10.10
2019-03-04T14:59:14.780Z,9.90
2019-03-04T15:01:43.371Z,9.70
2019-03-04T15:04:11.167Z,9.50
2019-03-04T15:06:38.735Z,9.50
2019-03-04T15:09:09.848Z,9.50
2019-03-04T15:11:37.749Z,9.30
2019-03-04T15:14:05.313Z,9.40
2019-03-04T15:16:32.830Z,9.80
2019-03-04T15:19:01.140Z,9.70
2019-03-04T15:21:30.806Z,10.10
2019-03-04T15:24:13.546Z,10.00
2019-03-04T15:26:44.184Z,10.00
2019-03-04T15:29:12.079Z,10.00
2019-03-04T15:31:40.407Z,10.10
2019-03-04T15:34:09.135Z,10.20
2019-03-04T15:36:36.898Z,10.10
2019-03-04T15:39:07.759Z,10.00
2019-03-04T15:41:40.289Z,9.80
2019-03-04T15:44:05.601Z,9.90
2019-03-04T15:46:33.427Z,10.00
2019-03-04T15:49:01.414Z,10.00
2019-03-04T15:51:29.161Z,10.10
2019-03-04T15:53:57.424Z,9.90
2019-03-04T15:56:25.619Z,10.00
2019-03-04T15:58:53.502Z,10.30
2019-03-04T16:01:21.429Z,10.00
2019-03-04T16:03:49.336Z,10.00
2019-03-04T16:06:17.266Z,10.10
2019-03-04T16:08:45.361Z,9.90
2019-03-04T16:11:12.935Z,9.90
2019-03-04T16:13:40.464Z,10.00
2019-03-04T16:16:08.078Z,10.10
2019-03-04T16:18:35.949Z,9.80
2019-03-04T16:21:03.854Z,9.70
2019-03-04T16:23:31.675Z,9.80
2019-03-04T16:26:04.364Z,10.10
2019-03-04T16:28:32.066Z,9.90
2019-03-04T16:30:59.636Z,10.00
2019-03-04T16:33:27.563Z,10.10
2019-03-04T16:35:55.384Z,10.00
2019-03-04T16:38:23.105Z,10.10
2019-03-04T16:40:51.004Z,10.00
2019-03-04T16:43:19.477Z,10.10
2019-03-04T16:45:48.948Z,9.80
2019-03-04T16:48:16.891Z,9.90
2019-03-04T16:50:45.732Z,10.00
2019-03-04T16:53:14.320Z,9.70
2019-03-04T16:55:42.135Z,9.70
2019-03-04T16:58:10.064Z,9.80
2019-03-04T17:00:37.690Z,9.70
2019-03-04T17:03:05.596Z,9.70
2019-03-04T17:05:33.186Z,9.50
2019-03-04T17:08:02.182Z,9.40
2019-03-04T17:10:29.687Z,9.60
2019-03-04T17:12:57.273Z,9.30
2019-03-04T17:15:25.152Z,9.50
2019-03-04T17:17:52.727Z,9.60
2019-03-04T17:20:20.330Z,9.30
2019-03-04T17:22:48.659Z,9.70
2019-03-04T17:25:16.616Z,9.20
2019-03-04T17:27:44.212Z,9.70
2019-03-04T17:30:13.883Z,9.70
2019-03-04T17:32:42.041Z,9.10
2019-03-04T17:35:11.028Z,9.20
2019-03-04T17:37:38.602Z,9.40
2019-03-04T17:40:07.431Z,9.20
2019-03-04T17:42:35.277Z,9.50
2019-03-04T17:45:03.462Z,9.40
2019-03-04T17:47:30.971Z,9.50
2019-03-04T17:50:00.942Z,9.10
2019-03-04T17:52:28.490Z,9.40
2019-03-04T17:54:56.396Z,9.10
2019-03-04T17:57:24.209Z,8.90
2019-03-04T17:59:52.139Z,8.90
2019-03-04T18:02:20.289Z,9.00
2019-03-04T18:04:48.559Z,9.10
2019-03-04T18:07:16.424Z,8.30
2019-03-04T18:09:43.966Z,8.70
2019-03-04T18:12:11.562Z,9.00
2019-03-04T18:14:39.490Z,9.00
2019-03-04T18:17:07.430Z,8.50
2019-03-04T18:19:35.034Z,8.70
2019-03-04T18:22:02.636Z,8.70
2019-03-04T18:24:31.182Z,8.70
2019-03-04T18:27:14.290Z,8.70
2019-03-04T18:30:31.533Z,8.70
2019-03-04T18:33:31.221Z,8.70
2019-03-04T18:36:16.901Z,8.70
2019-03-04T18:39:12.749Z,8.60
2019-03-04T18:42:11.085Z,8.70
2019-03-04T18:44:47.650Z,8.60
2019-03-04T18:48:02.903Z,8.50
2019-03-04T18:50:30.506Z,8.60
2019-03-04T18:52:59.128Z,8.80
2019-03-04T18:55:27.387Z,8.70
2019-03-04T18:57:55.003Z,8.80
2019-03-04T19:00:24.167Z,8.80
2019-03-04T19:02:51.759Z,8.80
2019-03-04T19:05:19.282Z,8.60
2019-03-04T19:07:46.817Z,8.60
2019-03-04T19:10:14.342Z,8.50
2019-03-04T19:12:42.497Z,8.50
2019-03-04T19:15:10.891Z,8.30
2019-03-04T19:17:38.515Z,8.60
2019-03-04T19:20:08.943Z,8.60
2019-03-04T19:22:37.150Z,8.40
2019-03-04T19:25:04.942Z,8.80
2019-03-04T19:27:32.571Z,8.40
2019-03-04T19:30:00.320Z,8.60
2019-03-04T19:32:28.223Z,8.70
2019-03-04T19:34:55.962Z,8.30
2019-03-04T19:37:23.537Z,8.60
2019-03-04T19:39:51.246Z,8.30
2019-03-04T19:42:18.771Z,8.10
2019-03-04T19:44:49.022Z,8.00
2019-03-04T19:47:16.552Z,8.30
2019-03-04T19:49:44.551Z,8.00
2019-03-04T19:52:12.151Z,8.00
2019-03-04T19:54:39.687Z,8.10
2019-03-04T19:57:07.766Z,8.20
2019-03-04T19:59:35.314Z,8.30
2019-03-04T20:02:03.086Z,8.20
2019-03-04T20:04:31.264Z,8.20
2019-03-04T20:06:58.943Z,8.10
2019-03-04T20:09:27.711Z,8.10
2019-03-04T20:11:55.374Z,8.10
2019-03-04T20:14:25.313Z,8.10
2019-03-04T20:16:52.914Z,8.20
2019-03-04T20:19:20.671Z,8.00
2019-03-04T20:21:48.722Z,8.20
2019-03-04T20:24:16.351Z,8.20
2019-03-04T20:26:44.171Z,7.90
2019-03-04T20:29:12.025Z,8.00
2019-03-04T20:31:39.823Z,8.10
2019-03-04T20:34:08.470Z,7.90
2019-03-04T20:36:36.104Z,8.00
2019-03-04T20:39:05.646Z,7.90
2019-03-04T20:41:33.235Z,8.00
2019-03-04T20:44:00.801Z,7.90
2019-03-04T20:46:28.436Z,8.00
2019-03-04T20:48:56.620Z,7.80
2019-03-04T20:51:24.538Z,7.90
2019-03-04T20:53:52.353Z,7.80
2019-03-04T20:56:20.813Z,8.00
2019-03-04T20:58:49.367Z,7.50
2019-03-04T21:01:18.367Z,8.00
2019-03-04T21:03:46.813Z,8.00
2019-03-04T21:06:14.915Z,7.90
2019-03-04T21:08:43.344Z,8.10
2019-03-04T21:11:11.416Z,7.90
2019-03-04T21:13:39.374Z,7.90
2019-03-04T21:16:07.011Z,8.00
2019-03-04T21:18:34.989Z,7.80
2019-03-04T21:21:02.747Z,7.90
2019-03-04T21:23:30.525Z,8.00
2019-03-04T21:26:07.314Z,8.00
2019-03-04T21:28:44.530Z,8.40
2019-03-04T21:31:22.950Z,7.90
2019-03-04T21:34:23.085Z,8.00
2019-03-04T21:37:00.261Z,8.00
2019-03-04T21:39:33.310Z,8.10
2019-03-04T21:42:07.634Z,8.30
2019-03-04T21:45:14.381Z,7.80
2019-03-04T21:47:45.936Z,8.20
2019-03-04T21:50:16.822Z,7.80
2019-03-04T21:53:03.764Z,7.90
2019-03-04T21:56:22.830Z,7.80
2019-03-04T21:58:50.466Z,7.60
2019-03-04T22:01:25.530Z,7.90
2019-03-04T22:03:53.883Z,7.90
2019-03-04T22:06:21.542Z,7.10
2019-03-04T22:08:49.784Z,7.60
2019-03-04T22:11:17.354Z,7.70
2019-03-04T22:13:45.321Z,7.70
2019-03-04T22:16:13.282Z,7.90
2019-03-04T22:18:41.303Z,7.70
2019-03-04T22:21:16.531Z,7.70
2019-03-04T22:23:38.630Z,7.70
2019-03-04T22:26:06.503Z,7.90
2019-03-04T22:28:34.707Z,7.70
2019-03-04T22:31:02.703Z,7.80
2019-03-04T22:33:30.926Z,7.60
2019-03-04T22:35:58.549Z,7.70
2019-03-04T22:38:26.080Z,7.70
2019-03-04T22:40:53.674Z,7.70
2019-03-04T22:43:21.567Z,7.60
2019-03-04T22:45:49.491Z,7.60
2019-03-04T22:48:17.836Z,7.60
2019-03-04T22:50:45.386Z,7.70
2019-03-04T22:53:13.370Z,7.70
2019-03-04T22:55:41.668Z,7.90
2019-03-04T22:58:09.583Z,7.70
2019-03-04T23:01:35.107Z,7.70
2019-03-04T23:04:32.375Z,7.70
2019-03-04T23:07:08.097Z,7.50
2019-03-04T23:09:46.347Z,7.60
2019-03-04T23:12:19.861Z,7.60
2019-03-04T23:14:48.124Z,7.60
2019-03-04T23:20:56.158Z,7.70
2019-03-04T23:23:26.652Z,8.00
2019-03-04T23:25:56.366Z,8.10
2019-03-04T23:28:24.198Z,8.20
2019-03-04T23:30:52.631Z,8.40
2019-03-04T23:33:20.262Z,8.40
2019-03-04T23:35:47.904Z,8.10
2019-03-04T23:38:16.475Z,8.00
2019-03-04T23:40:44.435Z,8.30
2019-03-04T23:43:12.027Z,8.20
2019-03-04T23:45:39.890Z,8.20
2019-03-04T23:48:07.358Z,8.40
2019-03-04T23:50:34.987Z,8.20
2019-03-04T23:53:02.475Z,8.10
2019-03-04T23:55:30.062Z,8.20
2019-03-04T23:57:57.582Z,8.10
